Time;durP1;ratioP1;P1;durP2;ratioP2;P2;SDS_P1;SDS_P2;PMS_P1;PMS_P2;Temp;Humidity;BMP_temperature;BMP_pressure;BME280_temperature;BME280_humidity;BME280_pressure;Samples;Min_cycle;Max_cycle;Signal;HPM_P1;HPM_P2
2022/05/14 00:01:33;;;;;;;;;13.00;13.00;;;26.82;97559.70;;;;117014;1193;25273;-56
2022/05/14 00:04:02;;;;;;;;;11.75;11.00;;;26.80;97566.52;;;;117042;1192;24898;-57
2022/05/14 00:06:31;;;;;;;;;10.25;9.50;;;26.80;97566.07;;;;117116;1193;24793;-56
2022/05/14 00:09:04;;;;;;;;;11.50;10.00;;;26.81;97557.69;;;;117039;1193;25357;-58
2022/05/14 00:14:21;;;;;;;;;15.00;11.75;;;26.84;97550.79;;;;117220;1193;25511;-57
2022/05/14 00:16:50;;;;;;;;;7.75;7.75;;;26.85;97548.54;;;;117010;1193;25047;-57
2022/05/14 00:19:19;;;;;;;;;13.50;10.75;;;26.84;97549.89;;;;117107;1191;24887;-59
2022/05/14 00:21:47;;;;;;;;;14.00;12.75;;;26.82;97545.96;;;;117134;1191;25361;-57
2022/05/14 00:24:16;;;;;;;;;13.33;12.33;;;26.82;97542.51;;;;117064;1192;25304;-57
2022/05/14 00:26:44;;;;;;;;;11.25;9.75;;;26.79;97547.20;;;;117067;1193;25086;-57
2022/05/14 00:29:13;;;;;;;;;13.25;11.00;;;26.80;97545.48;;;;117042;1192;24825;-56
2022/05/14 00:31:42;;;;;;;;;12.25;10.50;;;26.78;97553.25;;;;117095;1193;25087;-57
2022/05/14 00:34:10;;;;;;;;;12.50;9.00;;;26.80;97549.92;;;;117070;1193;24847;-56
2022/05/14 00:36:38;;;;;;;;;10.00;9.33;;;26.78;97543.52;;;;117050;1193;25354;-58
2022/05/14 00:39:06;;;;;;;;;13.00;10.25;;;26.76;97541.44;;;;117105;1193;24933;-58
2022/05/14 00:41:36;;;;;;;;;13.50;13.50;;;26.74;97545.77;;;;117079;1193;25214;-58
2022/05/14 00:44:05;;;;;;;;;14.00;10.33;;;26.73;97547.33;;;;117027;1193;25319;-57
2022/05/14 00:46:45;;;;;;;;;10.67;10.33;;;26.75;97547.83;;;;117055;1193;25275;-57
2022/05/14 00:49:15;;;;;;;;;12.50;11.00;;;26.77;97541.55;;;;117083;1193;25446;-57
2022/05/14 00:51:45;;;;;;;;;7.25;6.50;;;26.79;97539.42;;;;117053;1193;26692;-57
2022/05/14 00:54:16;;;;;;;;;12.75;11.50;;;26.79;97544.67;;;;117035;1193;25675;-57
2022/05/14 00:56:52;;;;;;;;;17.00;14.33;;;26.77;97541.86;;;;116983;1194;25682;-57
2022/05/14 00:59:23;;;;;;;;;16.25;9.00;;;26.78;97531.90;;;;117071;1194;25599;-56
2022/05/14 01:01:51;;;;;;;;;12.50;12.50;;;26.79;97532.99;;;;117020;1194;25278;-57
2022/05/14 01:04:20;;;;;;;;;12.50;11.25;;;26.76;97535.77;;;;117117;1193;25649;-57
2022/05/14 01:07:11;;;;;;;;;14.75;12.00;;;26.77;97534.26;;;;117149;1193;24781;-56
2022/05/14 01:09:43;;;;;;;;;9.33;9.33;;;26.77;97529.39;;;;117024;1193;25065;-58
2022/05/14 01:12:12;;;;;;;;;14.25;11.25;;;26.76;97524.79;;;;117067;1193;26398;-57
2022/05/14 01:14:40;;;;;;;;;9.25;9.25;;;26.76;97528.91;;;;117016;1193;25259;-57
2022/05/14 01:17:08;;;;;;;;;9.00;9.00;;;26.73;97533.48;;;;117002;1193;25211;-56
2022/05/14 01:19:37;;;;;;;;;12.75;12.50;;;26.72;97534.84;;;;117050;1193;25602;-57
2022/05/14 01:22:29;;;;;;;;;11.33;11.33;;;26.71;97530.73;;;;117042;1193;25225;-57
2022/05/14 01:27:55;;;;;;;;;9.33;9.00;;;26.72;97524.42;;;;117011;1193;24979;-57
2022/05/14 01:30:22;;;;;;;;;11.50;10.75;;;26.69;97524.20;;;;117079;1193;24893;-58
2022/05/14 01:33:04;;;;;;;;;10.33;10.00;;;26.70;97521.77;;;;116983;1192;25535;-57
2022/05/14 01:35:37;;;;;;;;;7.25;7.25;;;26.71;97518.64;;;;117139;1192;25447;-57
2022/05/14 01:38:05;;;;;;;;;13.50;10.25;;;26.73;97516.50;;;;117023;1193;25196;-58
2022/05/14 01:40:33;;;;;;;;;11.00;10.50;;;26.72;97517.31;;;;116993;1193;25179;-57
2022/05/14 01:43:01;;;;;;;;;12.25;10.00;;;26.68;97518.88;;;;116981;1193;25095;-57
2022/05/14 01:45:33;;;;;;;;;12.67;11.33;;;26.66;97516.41;;;;117002;1194;24804;-57
2022/05/14 01:48:03;;;;;;;;;10.25;10.25;;;26.64;97515.92;;;;117024;1193;25400;-57
2022/05/14 01:50:31;;;;;;;;;13.50;13.25;;;26.67;97517.35;;;;117001;1192;25493;-57
2022/05/14 01:52:59;;;;;;;;;10.25;10.25;;;26.64;97517.47;;;;117095;1192;24914;-57
2022/05/14 01:55:27;;;;;;;;;12.00;12.00;;;26.64;97520.37;;;;117004;1192;25485;-57
2022/05/14 01:57:55;;;;;;;;;13.75;12.75;;;26.65;97524.39;;;;117103;1193;25271;-57
2022/05/14 02:00:23;;;;;;;;;9.33;9.33;;;26.64;97527.11;;;;116974;1193;25653;-58
2022/05/14 02:02:51;;;;;;;;;12.67;11.00;;;26.63;97531.23;;;;117195;1193;24802;-57
2022/05/14 02:05:19;;;;;;;;;11.00;11.00;;;26.66;97531.64;;;;117085;1193;25525;-56
2022/05/14 02:07:47;;;;;;;;;10.67;9.67;;;26.67;97535.36;;;;117057;1193;25858;-57
2022/05/14 02:10:16;;;;;;;;;10.75;10.75;;;26.65;97543.91;;;;117141;1193;25021;-57
2022/05/14 02:12:44;;;;;;;;;12.00;10.25;;;26.68;97547.42;;;;117030;1193;25506;-57
2022/05/14 02:15:12;;;;;;;;;12.00;12.00;;;26.68;97547.16;;;;117029;1194;25206;-57
2022/05/14 02:17:41;;;;;;;;;12.75;10.00;;;26.65;97550.13;;;;117010;1193;25410;-56
2022/05/14 02:20:09;;;;;;;;;12.00;12.00;;;26.66;97552.27;;;;117087;1193;25503;-59
2022/05/14 02:22:38;;;;;;;;;11.00;11.00;;;26.64;97549.21;;;;117033;1193;25923;-57
2022/05/14 02:25:06;;;;;;;;;12.00;10.50;;;26.63;97548.19;;;;117096;1193;25847;-58
2022/05/14 02:27:34;;;;;;;;;18.33;12.67;;;26.63;97546.85;;;;117051;1193;25282;-59
2022/05/14 02:30:03;;;;;;;;;11.00;8.00;;;26.62;97548.01;;;;117067;1193;24996;-57
2022/05/14 02:32:31;;;;;;;;;12.67;11.00;;;26.61;97544.94;;;;117075;1193;26230;-57
2022/05/14 02:35:02;;;;;;;;;9.75;9.50;;;26.62;97547.49;;;;117085;1193;25460;-57
2022/05/14 02:37:30;;;;;;;;;10.67;9.00;;;26.62;97549.55;;;;117100;1193;26265;-56
2022/05/14 02:39:58;;;;;;;;;13.50;9.50;;;26.62;97556.50;;;;117110;1192;24900;-58
2022/05/14 02:42:26;;;;;;;;;9.75;8.25;;;26.63;97562.39;;;;117055;1193;26155;-57
2022/05/14 02:44:54;;;;;;;;;13.33;10.67;;;26.61;97565.91;;;;117104;1192;25244;-57
2022/05/14 02:47:23;;;;;;;;;13.00;10.67;;;26.60;97569.83;;;;117050;1191;25377;-56
2022/05/14 02:49:51;;;;;;;;;9.00;8.00;;;26.59;97569.67;;;;116965;1193;24930;-58
2022/05/14 02:52:19;;;;;;;;;10.67;10.67;;;26.58;97567.74;;;;117046;1193;25245;-57
2022/05/14 02:54:47;;;;;;;;;14.00;13.67;;;26.57;97567.69;;;;117002;1193;24738;-58
2022/05/14 02:57:15;;;;;;;;;15.00;12.00;;;26.55;97569.45;;;;117061;1193;24733;-58
2022/05/14 02:59:43;;;;;;;;;12.00;11.00;;;26.54;97567.56;;;;117095;1193;25232;-57
2022/05/14 03:02:11;;;;;;;;;12.00;11.33;;;26.57;97574.21;;;;117089;1193;25073;-57
2022/05/14 03:04:40;;;;;;;;;11.33;10.33;;;26.57;97575.80;;;;117000;1193;25465;-57
2022/05/14 03:07:10;;;;;;;;;12.00;12.00;;;26.58;97576.73;;;;117053;1193;25714;-58
2022/05/14 03:09:40;;;;;;;;;13.33;11.67;;;26.59;97575.27;;;;117059;1193;25315;-58
2022/05/14 03:12:11;;;;;;;;;13.00;10.00;;;26.60;97573.02;;;;117123;1193;25645;-58
2022/05/14 03:14:39;;;;;;;;;10.50;10.25;;;26.60;97575.09;;;;117093;1192;25196;-58
2022/05/14 03:17:08;;;;;;;;;12.33;10.33;;;26.61;97582.21;;;;117119;1193;25184;-57
2022/05/14 03:19:36;;;;;;;;;10.00;9.50;;;26.63;97583.58;;;;117077;1193;25106;-58
2022/05/14 03:22:04;;;;;;;;;7.33;7.33;;;26.63;97581.23;;;;116984;1193;26093;-58
2022/05/14 03:24:35;;;;;;;;;10.33;9.33;;;26.60;97584.09;;;;117073;1193;24868;-57
2022/05/14 03:27:06;;;;;;;;;15.00;12.25;;;26.62;97583.77;;;;116984;1193;25114;-58
2022/05/14 03:29:35;;;;;;;;;9.00;8.00;;;26.62;97586.58;;;;117084;1193;26694;-60
2022/05/14 03:32:03;;;;;;;;;10.33;9.00;;;26.61;97585.01;;;;117032;1192;25038;-61
2022/05/14 03:34:32;;;;;;;;;11.00;8.25;;;26.61;97587.62;;;;117005;1193;24932;-58
2022/05/14 03:37:00;;;;;;;;;10.67;9.00;;;26.60;97583.95;;;;117044;1192;25508;-58
2022/05/14 03:39:29;;;;;;;;;9.33;9.00;;;26.60;97584.48;;;;116998;1193;24861;-58
2022/05/14 03:41:57;;;;;;;;;10.00;9.67;;;26.60;97585.20;;;;117023;1193;25676;-59
2022/05/14 03:44:26;;;;;;;;;10.75;9.75;;;26.56;97586.20;;;;117040;1193;25302;-57
2022/05/14 03:46:53;;;;;;;;;9.75;7.75;;;26.57;97587.11;;;;117080;1193;25127;-57
2022/05/14 03:49:21;;;;;;;;;13.25;10.25;;;26.58;97589.80;;;;117036;1193;25402;-57
2022/05/14 03:51:49;;;;;;;;;10.33;10.33;;;26.59;97591.88;;;;117080;1193;25693;-58
2022/05/14 03:54:17;;;;;;;;;7.00;7.00;;;26.58;97593.83;;;;117140;1193;25858;-56
2022/05/14 03:56:45;;;;;;;;;9.67;8.67;;;26.58;97596.61;;;;117164;1193;24942;-57
2022/05/14 03:59:13;;;;;;;;;8.67;7.33;;;26.59;97605.22;;;;117066;1193;24716;-58
2022/05/14 04:01:41;;;;;;;;;11.67;10.00;;;26.60;97610.11;;;;117037;1193;24786;-58
2022/05/14 04:04:09;;;;;;;;;12.00;9.33;;;26.59;97610.95;;;;117047;1193;25500;-58
2022/05/14 04:06:37;;;;;;;;;11.33;10.00;;;26.59;97612.80;;;;117107;1193;25626;-57
2022/05/14 04:09:07;;;;;;;;;7.00;7.00;;;26.62;97614.77;;;;117031;1193;25363;-57
2022/05/14 04:11:37;;;;;;;;;9.00;9.00;;;26.63;97614.71;;;;117078;1193;25064;-57
2022/05/14 04:14:07;;;;;;;;;12.50;11.00;;;26.64;97617.79;;;;117056;1192;24951;-59
2022/05/14 04:16:35;;;;;;;;;11.75;11.75;;;26.63;97619.84;;;;117025;1193;25530;-57
2022/05/14 04:19:06;;;;;;;;;7.50;5.25;;;26.63;97623.65;;;;117075;1193;25029;-59
2022/05/14 04:21:35;;;;;;;;;12.00;10.50;;;26.64;97623.55;;;;117106;1193;25642;-57
2022/05/14 04:24:04;;;;;;;;;15.00;10.50;;;26.65;97622.24;;;;117067;1193;25643;-58
2022/05/14 04:26:33;;;;;;;;;12.50;9.50;;;26.66;97621.83;;;;117104;1193;25383;-57
2022/05/14 04:29:03;;;;;;;;;13.25;10.75;;;26.65;97624.70;;;;117062;1193;25565;-57
2022/05/14 04:31:33;;;;;;;;;9.25;9.00;;;26.64;97624.88;;;;117067;1192;24878;-57
2022/05/14 04:34:04;;;;;;;;;9.33;7.67;;;26.65;97625.37;;;;117075;1193;26621;-58
2022/05/14 04:36:32;;;;;;;;;11.50;9.00;;;26.67;97628.91;;;;116986;1193;25477;-58
2022/05/14 04:39:00;;;;;;;;;11.25;10.25;;;26.66;97627.55;;;;117011;1193;25009;-60
2022/05/14 04:41:30;;;;;;;;;9.50;9.50;;;26.67;97630.80;;;;117052;1193;25244;-58
2022/05/14 04:43:59;;;;;;;;;13.75;9.50;;;26.68;97627.98;;;;117107;1193;24966;-58
2022/05/14 04:46:30;;;;;;;;;7.67;7.33;;;26.72;97626.27;;;;117103;1193;25850;-58
2022/05/14 04:48:58;;;;;;;;;10.33;10.33;;;26.71;97626.45;;;;117060;1193;25822;-57
2022/05/14 04:51:26;;;;;;;;;10.00;8.75;;;26.71;97624.44;;;;117092;1193;25698;-56
2022/05/14 04:53:54;;;;;;;;;10.50;8.00;;;26.70;97625.27;;;;117012;1192;24799;-56
2022/05/14 04:56:21;;;;;;;;;11.33;9.67;;;26.70;97622.34;;;;117090;1191;25562;-58
2022/05/14 04:58:49;;;;;;;;;4.00;4.00;;;26.71;97624.95;;;;117112;1193;26401;-58
2022/05/14 05:01:17;;;;;;;;;8.00;8.00;;;26.70;97629.80;;;;117142;1193;25516;-56
2022/05/14 05:03:45;;;;;;;;;8.75;8.25;;;26.71;97629.84;;;;117201;1193;25297;-57
2022/05/14 05:06:14;;;;;;;;;11.00;11.00;;;26.74;97634.05;;;;117391;1193;24885;-57
2022/05/14 05:08:42;;;;;;;;;10.25;10.25;;;26.82;97637.02;;;;117107;1193;25041;-56
2022/05/14 05:11:14;;;;;;;;;12.00;10.00;;;26.81;97639.53;;;;117197;1192;25318;-57
2022/05/14 05:13:43;;;;;;;;;10.67;10.67;;;26.77;97642.13;;;;117013;1193;25647;-57
2022/05/14 05:16:12;;;;;;;;;8.50;8.50;;;26.78;97644.09;;;;117019;1194;25170;-57
2022/05/14 05:18:42;;;;;;;;;8.67;8.67;;;26.75;97644.50;;;;117001;1193;25255;-57
2022/05/14 05:21:13;;;;;;;;;13.00;8.25;;;26.72;97641.38;;;;117039;1193;25010;-58
2022/05/14 05:23:41;;;;;;;;;9.00;8.00;;;26.71;97640.06;;;;117048;1193;24972;-57
2022/05/14 05:26:09;;;;;;;;;10.00;9.00;;;26.72;97642.61;;;;117056;1193;25227;-58
2022/05/14 05:28:41;;;;;;;;;8.50;7.25;;;26.73;97645.49;;;;117017;1194;25060;-57
2022/05/14 05:31:10;;;;;;;;;10.25;9.25;;;26.73;97646.89;;;;117019;1193;25416;-58
2022/05/14 05:33:39;;;;;;;;;6.00;6.00;;;26.73;97643.23;;;;117051;1192;26570;-57
2022/05/14 05:36:09;;;;;;;;;8.00;8.00;;;26.74;97643.14;;;;116998;1194;24848;-58
2022/05/14 05:38:40;;;;;;;;;8.00;8.00;;;26.72;97645.47;;;;117021;1194;25034;-57
2022/05/14 05:41:10;;;;;;;;;9.67;9.67;;;26.74;97647.20;;;;117061;1193;25756;-58
2022/05/14 05:43:38;;;;;;;;;9.75;9.25;;;26.73;97651.48;;;;117030;1192;25397;-56
2022/05/14 05:46:11;;;;;;;;;8.00;6.25;;;26.73;97646.73;;;;117021;1193;25573;-56
2022/05/14 05:48:43;;;;;;;;;9.67;6.00;;;26.74;97648.58;;;;117010;1192;25192;-58
2022/05/14 05:51:12;;;;;;;;;11.50;9.50;;;26.75;97652.05;;;;116967;1193;25318;-57
2022/05/14 05:56:46;;;;;;;;;8.75;8.75;;;26.75;97651.48;;;;117103;1192;24793;-57
2022/05/14 05:59:18;;;;;;;;;9.75;9.75;;;26.74;97657.30;;;;117066;1193;25457;-57
2022/05/14 06:01:50;;;;;;;;;9.67;9.67;;;26.74;97659.73;;;;116996;1193;25615;-57
2022/05/14 06:04:19;;;;;;;;;12.75;9.25;;;26.75;97659.21;;;;117053;1192;24856;-58
2022/05/14 06:06:48;;;;;;;;;9.00;8.00;;;26.75;97658.16;;;;117067;1193;25103;-57
2022/05/14 06:09:24;;;;;;;;;8.25;8.25;;;26.76;97653.13;;;;117015;1192;25218;-57
2022/05/14 06:11:54;;;;;;;;;7.67;7.67;;;26.77;97657.38;;;;117056;1193;25331;-58
2022/05/14 06:14:25;;;;;;;;;8.75;8.25;;;26.78;97655.31;;;;117048;1193;25015;-58
2022/05/14 06:16:54;;;;;;;;;9.50;7.00;;;26.79;97660.58;;;;117046;1193;25385;-57
2022/05/14 06:19:22;;;;;;;;;9.67;9.33;;;26.80;97658.88;;;;117060;1193;24887;-58
2022/05/14 06:21:56;;;;;;;;;12.00;9.00;;;26.79;97663.15;;;;117018;1193;25236;-57
2022/05/14 06:24:24;;;;;;;;;10.25;9.25;;;26.80;97662.62;;;;117055;1193;25108;-56
2022/05/14 06:26:56;;;;;;;;;8.00;8.00;;;26.80;97657.95;;;;117059;1193;26219;-57
2022/05/14 06:29:25;;;;;;;;;13.50;10.75;;;26.81;97658.38;;;;117041;1192;25630;-59
2022/05/14 06:31:55;;;;;;;;;7.00;7.00;;;26.81;97658.85;;;;117018;1193;24928;-57
2022/05/14 06:34:24;;;;;;;;;11.75;9.25;;;26.80;97656.73;;;;117096;1193;25640;-59
2022/05/14 06:36:55;;;;;;;;;8.00;7.00;;;26.80;97657.92;;;;117073;1191;26413;-57
2022/05/14 06:39:27;;;;;;;;;8.00;8.00;;;26.82;97653.60;;;;117020;1193;25087;-57
2022/05/14 06:41:57;;;;;;;;;8.25;7.25;;;26.82;97654.00;;;;117044;1193;26380;-57
2022/05/14 06:44:30;;;;;;;;;9.25;8.75;;;26.83;97659.09;;;;117056;1192;25639;-58
2022/05/14 06:47:01;;;;;;;;;12.75;8.25;;;26.86;97660.36;;;;117013;1193;25641;-60
2022/05/14 06:49:34;;;;;;;;;8.00;7.33;;;26.85;97660.11;;;;117090;1193;25747;-58
2022/05/14 06:52:05;;;;;;;;;9.25;9.25;;;26.86;97663.48;;;;117029;1191;24873;-57
2022/05/14 06:54:39;;;;;;;;;9.00;7.67;;;26.85;97662.40;;;;117023;1193;25574;-57
2022/05/14 06:57:11;;;;;;;;;10.25;7.25;;;26.86;97663.23;;;;117096;1192;24700;-57
2022/05/14 06:59:40;;;;;;;;;9.75;9.25;;;26.89;97663.52;;;;117150;1193;25434;-57
2022/05/14 07:02:10;;;;;;;;;12.50;10.50;;;26.91;97664.02;;;;117087;1192;25491;-58
2022/05/14 07:07:29;;;;;;;;;9.25;9.25;;;26.89;97667.66;;;;117059;1192;24805;-57
2022/05/14 07:10:00;;;;;;;;;8.00;8.00;;;26.86;97661.70;;;;117041;1193;25150;-57
2022/05/14 07:12:32;;;;;;;;;8.00;6.75;;;26.89;97661.41;;;;117039;1193;25640;-56
2022/05/14 07:15:04;;;;;;;;;8.00;7.50;;;26.89;97661.89;;;;117038;1193;25603;-57
2022/05/14 07:17:35;;;;;;;;;12.50;9.25;;;26.90;97661.45;;;;117031;1193;25389;-58
2022/05/14 07:20:06;;;;;;;;;10.00;7.00;;;26.90;97660.70;;;;117066;1193;25572;-57
2022/05/14 07:22:35;;;;;;;;;8.25;5.75;;;26.92;97661.91;;;;116995;1192;26248;-57
2022/05/14 07:25:06;;;;;;;;;6.00;6.00;;;26.90;97662.73;;;;116972;1194;25286;-57
2022/05/14 07:27:40;;;;;;;;;7.75;7.75;;;26.91;97667.60;;;;117031;1192;25931;-56
2022/05/14 07:30:09;;;;;;;;;9.50;8.75;;;26.90;97664.79;;;;116997;1193;24768;-57
2022/05/14 07:32:40;;;;;;;;;10.00;8.33;;;26.88;97671.27;;;;117052;1193;24945;-57
2022/05/14 07:35:09;;;;;;;;;10.00;8.33;;;26.89;97672.58;;;;117015;1193;25524;-57
2022/05/14 07:37:45;;;;;;;;;10.00;7.33;;;26.90;97671.94;;;;117030;1193;25021;-56
2022/05/14 07:40:20;;;;;;;;;8.25;8.00;;;26.91;97669.95;;;;117044;1192;25648;-57
2022/05/14 07:42:59;;;;;;;;;8.50;8.50;;;26.94;97667.16;;;;117029;1193;25462;-56
2022/05/14 07:45:38;;;;;;;;;6.75;5.50;;;26.93;97668.80;;;;117069;1193;25424;-56
2022/05/14 07:48:09;;;;;;;;;6.00;5.50;;;26.95;97674.71;;;;117015;1193;25014;-57
2022/05/14 07:50:39;;;;;;;;;6.00;6.00;;;26.98;97675.70;;;;117023;1191;25056;-56
2022/05/14 07:53:07;;;;;;;;;10.33;8.67;;;26.95;97682.89;;;;117087;1193;24916;-57
2022/05/14 07:55:36;;;;;;;;;7.00;7.00;;;26.98;97680.39;;;;117017;1193;25040;-57
2022/05/14 07:58:04;;;;;;;;;9.50;8.75;;;26.95;97684.05;;;;117057;1193;24721;-57
2022/05/14 08:00:33;;;;;;;;;9.00;7.75;;;26.94;97680.88;;;;117081;1193;25832;-58
2022/05/14 08:03:02;;;;;;;;;8.50;8.50;;;26.95;97681.92;;;;117059;1193;24833;-57
2022/05/14 08:05:30;;;;;;;;;7.00;5.33;;;26.94;97680.71;;;;117019;1192;25448;-56
2022/05/14 08:07:58;;;;;;;;;8.00;8.00;;;26.92;97681.81;;;;116991;1193;26149;-57
2022/05/14 08:10:25;;;;;;;;;8.25;8.25;;;26.91;97683.38;;;;117046;1193;26119;-57
2022/05/14 08:12:55;;;;;;;;;8.25;8.25;;;26.91;97685.34;;;;117092;1193;25629;-58
2022/05/14 08:15:25;;;;;;;;;11.33;11.33;;;26.92;97690.13;;;;117058;1193;25054;-57
2022/05/14 08:17:54;;;;;;;;;11.00;8.33;;;26.91;97684.73;;;;117053;1193;25405;-56
2022/05/14 08:20:22;;;;;;;;;12.25;9.25;;;26.92;97685.98;;;;117100;1193;25297;-58
2022/05/14 08:25:36;;;;;;;;;13.67;9.00;;;26.97;97686.80;;;;117068;1193;24736;-59
2022/05/14 08:28:04;;;;;;;;;11.67;8.00;;;26.95;97687.52;;;;117145;1191;25793;-57
2022/05/14 08:30:33;;;;;;;;;9.33;7.33;;;26.95;97689.20;;;;117050;1192;24889;-57
2022/05/14 08:33:04;;;;;;;;;9.33;8.67;;;26.93;97688.95;;;;117152;1192;25395;-57
2022/05/14 08:35:34;;;;;;;;;10.25;10.25;;;26.95;97693.38;;;;117097;1191;25652;-56
2022/05/14 08:38:02;;;;;;;;;7.00;7.00;;;26.97;97692.41;;;;117101;1193;24945;-57
2022/05/14 08:40:37;;;;;;;;;9.00;7.00;;;26.96;97696.44;;;;117116;1193;24879;-57
2022/05/14 08:43:12;;;;;;;;;9.67;9.00;;;26.96;97698.70;;;;117082;1193;24992;-57
2022/05/14 08:45:40;;;;;;;;;7.50;7.50;;;26.99;97705.99;;;;117001;1193;25179;-58
2022/05/14 08:48:16;;;;;;;;;8.67;8.33;;;26.98;97702.08;;;;117053;1193;24981;-57
2022/05/14 08:51:05;;;;;;;;;10.75;8.25;;;26.98;97703.56;;;;117024;1192;26076;-57
2022/05/14 08:53:36;;;;;;;;;10.75;8.75;;;27.01;97701.05;;;;117065;1193;25398;-57
2022/05/14 08:56:19;;;;;;;;;10.50;8.25;;;26.99;97702.23;;;;117074;1193;25497;-59
2022/05/14 08:59:12;;;;;;;;;10.25;9.50;;;27.00;97704.55;;;;117026;1192;25670;-57
2022/05/14 09:01:42;;;;;;;;;7.50;7.50;;;26.99;97701.14;;;;117029;1193;25090;-57
2022/05/14 09:04:12;;;;;;;;;9.00;9.00;;;26.95;97698.09;;;;117073;1191;24749;-57
2022/05/14 09:06:41;;;;;;;;;7.25;5.25;;;26.95;97692.98;;;;116990;1193;25601;-57
2022/05/14 09:09:09;;;;;;;;;9.75;8.25;;;26.95;97693.15;;;;117015;1193;24877;-57
2022/05/14 09:11:42;;;;;;;;;7.25;7.25;;;26.95;97696.13;;;;117152;1192;25396;-57
2022/05/14 09:14:27;;;;;;;;;5.75;3.50;;;26.98;97695.08;;;;117022;1193;25395;-57
2022/05/14 09:17:07;;;;;;;;;8.50;5.00;;;26.99;97695.33;;;;117021;1193;25767;-57
2022/05/14 09:19:38;;;;;;;;;7.25;6.50;;;27.02;97699.08;;;;117009;1193;25991;-56
2022/05/14 09:22:18;;;;;;;;;7.75;7.75;;;27.01;97698.20;;;;117053;1193;24860;-57
2022/05/14 09:24:50;;;;;;;;;8.50;6.50;;;27.03;97698.34;;;;117069;1193;25463;-60
2022/05/14 09:27:25;;;;;;;;;8.00;8.00;;;27.01;97702.88;;;;117028;1193;25145;-57
2022/05/14 09:29:56;;;;;;;;;6.50;4.75;;;27.00;97705.92;;;;117053;1193;25637;-57
2022/05/14 09:32:29;;;;;;;;;9.00;8.00;;;27.01;97703.21;;;;117079;1193;24919;-57
2022/05/14 09:35:25;;;;;;;;;10.00;7.50;;;27.01;97703.37;;;;117025;1193;25332;-57
2022/05/14 09:38:21;;;;;;;;;7.50;7.50;;;27.09;97702.43;;;;117046;1192;24910;-57
2022/05/14 09:40:53;;;;;;;;;6.00;6.00;;;27.16;97696.83;;;;117006;1194;25677;-57
2022/05/14 09:43:20;;;;;;;;;9.00;9.00;;;27.13;97700.45;;;;117006;1193;25836;-57
2022/05/14 09:46:07;;;;;;;;;11.25;7.00;;;27.07;97696.73;;;;116997;1194;25575;-57
2022/05/14 09:48:51;;;;;;;;;7.67;7.00;;;27.02;97697.60;;;;117003;1193;24799;-58
2022/05/14 09:51:35;;;;;;;;;8.00;8.00;;;27.01;97686.60;;;;117035;1193;25167;-57
2022/05/14 09:54:15;;;;;;;;;7.75;7.75;;;27.01;97693.40;;;;117048;1193;25497;-58
2022/05/14 09:57:08;;;;;;;;;8.67;8.67;;;27.00;97691.56;;;;117085;1193;25470;-58
2022/05/14 10:00:14;;;;;;;;;9.75;9.25;;;26.98;97688.75;;;;117015;1194;25562;-57
2022/05/14 10:03:13;;;;;;;;;9.00;8.25;;;26.99;97688.65;;;;117034;1194;25635;-57
2022/05/14 10:06:18;;;;;;;;;8.75;7.00;;;26.96;97690.13;;;;116992;1193;24881;-57
2022/05/14 10:09:33;;;;;;;;;10.00;8.00;;;26.96;97691.15;;;;117104;1193;24731;-58
2022/05/14 10:12:21;;;;;;;;;7.33;7.33;;;27.08;97683.33;;;;116843;1196;25242;-57
2022/05/14 10:15:12;;;;;;;;;9.25;9.25;;;27.13;97688.02;;;;117090;1192;26461;-57
2022/05/14 10:17:46;;;;;;;;;7.00;7.00;;;27.11;97685.69;;;;117024;1193;24741;-57
2022/05/14 10:20:35;;;;;;;;;7.00;7.00;;;27.06;97686.17;;;;117047;1193;24932;-58
2022/05/14 10:26:47;;;;;;;;;9.67;8.33;;;27.18;97677.44;;;;117132;1193;25633;-57
2022/05/14 10:29:41;;;;;;;;;8.33;7.00;;;27.15;97682.05;;;;117113;1193;25701;-57
2022/05/14 10:32:16;;;;;;;;;8.67;7.00;;;27.14;97676.57;;;;117008;1193;24952;-58
2022/05/14 10:35:17;;;;;;;;;7.33;7.33;;;27.08;97674.27;;;;117016;1193;25676;-57
2022/05/14 10:37:51;;;;;;;;;10.33;9.33;;;27.07;97675.09;;;;117084;1193;25223;-56
2022/05/14 10:40:42;;;;;;;;;5.25;5.25;;;27.05;97678.09;;;;117093;1192;25223;-56
2022/05/14 10:43:34;;;;;;;;;7.00;7.00;;;27.03;97678.02;;;;117085;1193;25453;-57
2022/05/14 10:46:10;;;;;;;;;8.00;7.33;;;27.03;97676.47;;;;117062;1193;26228;-56
2022/05/14 10:48:59;;;;;;;;;9.25;7.50;;;27.01;97672.29;;;;117050;1193;25039;-57
2022/05/14 10:51:30;;;;;;;;;8.00;7.00;;;27.06;97669.55;;;;117058;1191;25382;-57
2022/05/14 10:54:02;;;;;;;;;7.67;7.00;;;27.06;97665.39;;;;117067;1193;25705;-57
2022/05/14 10:56:37;;;;;;;;;9.50;6.25;;;27.06;97674.30;;;;116987;1193;25728;-58
2022/05/14 10:59:11;;;;;;;;;7.67;5.33;;;27.04;97682.86;;;;117073;1193;25689;-57
2022/05/14 11:01:46;;;;;;;;;9.75;9.25;;;27.05;97681.23;;;;117034;1193;24751;-58
2022/05/14 11:04:14;;;;;;;;;8.50;8.50;;;27.08;97676.95;;;;117067;1193;25011;-57
2022/05/14 11:06:57;;;;;;;;;13.00;10.25;;;27.09;97677.13;;;;117119;1193;25338;-57
2022/05/14 11:09:37;;;;;;;;;9.00;9.00;;;27.08;97685.09;;;;117100;1192;24789;-57
2022/05/14 11:12:20;;;;;;;;;7.50;6.75;;;27.09;97687.02;;;;117090;1193;25305;-57
2022/05/14 11:14:56;;;;;;;;;6.50;6.50;;;27.10;97685.50;;;;117097;1191;24766;-56
2022/05/14 11:17:35;;;;;;;;;10.00;8.00;;;27.12;97677.78;;;;117139;1193;25380;-60
2022/05/14 11:20:03;;;;;;;;;7.50;7.50;;;27.14;97680.12;;;;117158;1193;25224;-60
2022/05/14 11:22:39;;;;;;;;;9.00;7.67;;;27.15;97671.56;;;;117126;1193;25210;-58
2022/05/14 11:25:22;;;;;;;;;10.75;9.00;;;27.13;97677.35;;;;117053;1193;24779;-58
2022/05/14 11:28:15;;;;;;;;;10.33;10.33;;;27.15;97668.89;;;;117113;1193;26118;-57
2022/05/14 11:30:54;;;;;;;;;6.75;4.75;;;27.17;97669.65;;;;117136;1191;25242;-60
2022/05/14 11:33:28;;;;;;;;;8.33;7.33;;;27.17;97677.55;;;;117063;1193;25263;-57
2022/05/14 11:36:15;;;;;;;;;9.50;7.75;;;27.17;97671.89;;;;117107;1193;25155;-57
2022/05/14 11:38:52;;;;;;;;;10.67;10.67;;;27.22;97678.02;;;;117115;1193;25059;-56
2022/05/14 11:41:29;;;;;;;;;7.25;7.25;;;27.24;97674.92;;;;117015;1193;25211;-57
2022/05/14 11:43:58;;;;;;;;;9.50;9.50;;;27.25;97672.98;;;;117085;1191;25205;-57
2022/05/14 11:46:44;;;;;;;;;9.00;8.00;;;27.22;97670.64;;;;117107;1193;25738;-57
2022/05/14 11:49:12;;;;;;;;;7.33;7.33;;;27.22;97673.64;;;;117148;1192;25575;-58
2022/05/14 11:51:50;;;;;;;;;12.67;10.67;;;27.22;97671.86;;;;117068;1192;25219;-57
2022/05/14 11:54:30;;;;;;;;;9.75;8.25;;;27.21;97670.84;;;;117115;1192;24915;-57
2022/05/14 11:57:06;;;;;;;;;8.00;8.00;;;27.24;97671.83;;;;117074;1191;25678;-56
2022/05/14 11:59:56;;;;;;;;;7.50;5.50;;;27.25;97668.37;;;;117126;1192;25473;-57
2022/05/14 12:02:33;;;;;;;;;9.50;8.25;;;27.28;97669.59;;;;117086;1192;24890;-57
2022/05/14 12:05:06;;;;;;;;;9.00;8.50;;;27.27;97670.48;;;;117045;1193;24748;-57
2022/05/14 12:08:00;;;;;;;;;8.00;7.50;;;27.27;97670.07;;;;117039;1193;24948;-57
2022/05/14 12:10:46;;;;;;;;;9.00;8.25;;;27.31;97665.65;;;;117050;1192;25078;-57
2022/05/14 12:13:40;;;;;;;;;7.50;7.25;;;27.28;97656.95;;;;116984;1193;25204;-58
2022/05/14 12:16:09;;;;;;;;;7.67;7.67;;;27.29;97656.08;;;;117033;1193;25021;-57
2022/05/14 12:18:44;;;;;;;;;11.00;8.25;;;27.29;97647.76;;;;117113;1194;25570;-57
2022/05/14 12:21:16;;;;;;;;;9.75;9.25;;;27.30;97643.11;;;;117202;1194;25167;-56
2022/05/14 12:23:49;;;;;;;;;9.00;7.75;;;27.35;97642.09;;;;117062;1193;24948;-58
2022/05/14 12:26:26;;;;;;;;;8.00;6.33;;;27.35;97644.44;;;;117041;1193;24716;-57
2022/05/14 12:29:00;;;;;;;;;8.75;7.75;;;27.36;97638.95;;;;117085;1193;25729;-57
2022/05/14 12:34:33;;;;;;;;;11.00;8.25;;;27.41;97631.35;;;;117031;1191;25237;-58
2022/05/14 12:37:07;;;;;;;;;6.50;4.50;;;27.41;97637.16;;;;117083;1193;25120;-57
2022/05/14 12:39:38;;;;;;;;;6.67;5.00;;;27.44;97633.66;;;;117171;1193;25267;-57
2022/05/14 12:42:09;;;;;;;;;9.50;7.50;;;27.48;97637.16;;;;116982;1192;24999;-57
2022/05/14 12:44:46;;;;;;;;;6.25;6.25;;;27.47;97634.73;;;;117128;1193;24799;-57
2022/05/14 12:47:34;;;;;;;;;6.25;6.25;;;27.49;97635.67;;;;117058;1192;25604;-58
2022/05/14 12:50:25;;;;;;;;;5.00;5.00;;;27.56;97632.29;;;;117094;1193;24735;-57